Gum Springs Road, Louisiana
Current Conditions -  °F | °C
As of 11:15 AM on Sunday 23 Nov 2014 (Local Time) from KIER Reporting Station
Overcast Overcast  
Wind Chill: 64°   Ceiling: 1900
Heat Index: 64°   Visibility: 10mi
Dew Point: 62°   Wind: 8mph
Humidity: 92%   Direction: 230°SW
Pressure: 29.58"   Gusts: NA
Location:  31.8476°N, 92.7651°W
Report Text: KIER 231715Z AUTO 23007KT 10SM SCT012 BKN019 OVC038 18/17 A2958 RMK AO2 T01800167
Loading
Personal Weather Stations






























Interactive Weather Map New forecast layout! Learn more

10-Day Weather Forecast

Advertisements
Track Severe Weather on mobile